createdAt,value
2023-03-29T00:01:02.578Z,50369.57
2023-03-29T00:03:31.049Z,50346.38
2023-03-29T00:06:03.305Z,50354.37
2023-03-29T00:08:34.191Z,50352.38
2023-03-29T00:11:02.668Z,50354.37
2023-03-29T00:13:31.280Z,50363.17
2023-03-29T00:15:59.566Z,50351.98
2023-03-29T00:18:27.801Z,50361.57
2023-03-29T00:21:01.559Z,50370.77
2023-03-29T00:23:30.028Z,50365.57
2023-03-29T00:25:58.233Z,50371.57
2023-03-29T00:28:26.571Z,50374.36
2023-03-29T00:31:08.590Z,50357.17
2023-03-29T00:33:37.724Z,50369.57
2023-03-29T00:36:08.928Z,50372.77
2023-03-29T00:38:37.685Z,50359.17
2023-03-29T00:41:08.028Z,50360.77
2023-03-29T00:44:00.632Z,50352.37
2023-03-29T00:46:30.702Z,50377.17
2023-03-29T00:49:07.469Z,50383.96
2023-03-29T00:51:38.548Z,50375.96
2023-03-29T00:54:15.106Z,50370.37
2023-03-29T00:56:49.900Z,50378.36
2023-03-29T00:59:25.631Z,50379.17
2023-03-29T01:01:59.968Z,50381.96
2023-03-29T01:04:37.076Z,50379.17
2023-03-29T01:07:35.512Z,50381.16
2023-03-29T01:10:19.293Z,50375.57
2023-03-29T01:12:53.082Z,50392.76
2023-03-29T01:15:26.642Z,50397.16
2023-03-29T01:17:58.508Z,50396.36
2023-03-29T01:20:45.126Z,50402.36
2023-03-29T01:23:33.297Z,50385.56
2023-03-29T01:26:20.823Z,50395.96
2023-03-29T01:29:09.986Z,50391.56
2023-03-29T01:31:46.059Z,50385.96
2023-03-29T01:34:47.455Z,50384.77
2023-03-29T01:37:37.777Z,50405.55
2023-03-29T01:40:06.668Z,50395.96
2023-03-29T01:43:12.488Z,50386.37
2023-03-29T01:45:50.478Z,50397.16
2023-03-29T01:48:28.277Z,50396.36
2023-03-29T01:51:10.605Z,50405.16
2023-03-29T01:53:56.580Z,50387.16
2023-03-29T01:56:28.814Z,50383.56
2023-03-29T01:59:20.649Z,50375.96
2023-03-29T02:01:54.694Z,50388.36
2023-03-29T02:04:29.224Z,50389.96
2023-03-29T02:07:00.779Z,50404.76
2023-03-29T02:09:32.302Z,50390.36
2023-03-29T02:12:02.305Z,50386.76
2023-03-29T02:14:34.217Z,50388.76
2023-03-29T02:17:31.895Z,50385.56
2023-03-29T02:20:14.743Z,50387.57
2023-03-29T02:22:50.788Z,50400.76
2023-03-29T02:25:19.928Z,50397.96
2023-03-29T02:27:51.925Z,50392.76
2023-03-29T02:30:21.681Z,50395.96
2023-03-29T02:33:11.153Z,50388.76
2023-03-29T02:35:59.260Z,50379.96
2023-03-29T02:38:29.958Z,50375.96
2023-03-29T02:41:01.524Z,50389.57
2023-03-29T02:43:31.324Z,50399.16
2023-03-29T02:46:00.467Z,50383.96
2023-03-29T02:48:32.319Z,50403.56
2023-03-29T02:51:04.163Z,50401.56
2023-03-29T02:53:41.505Z,50390.77
2023-03-29T02:56:09.901Z,50408.36
2023-03-29T02:58:38.808Z,50394.76
2023-03-29T03:01:09.930Z,50403.16
2023-03-29T03:03:39.097Z,50387.16
2023-03-29T03:06:07.658Z,50393.16
2023-03-29T03:08:36.384Z,50415.95
2023-03-29T03:11:04.813Z,50396.76
2023-03-29T03:13:33.221Z,50416.35
2023-03-29T03:16:01.527Z,50394.76
2023-03-29T03:18:29.911Z,50405.96
2023-03-29T03:21:02.164Z,50415.95
2023-03-29T03:23:30.958Z,50402.76
2023-03-29T03:25:59.345Z,50413.15
2023-03-29T03:28:27.714Z,50403.16
2023-03-29T03:30:56.229Z,50383.57
2023-03-29T03:33:25.120Z,50405.16
2023-03-29T03:36:10.995Z,50388.36
2023-03-29T03:38:39.505Z,50391.56
2023-03-29T03:41:07.901Z,50401.16
2023-03-29T03:43:36.471Z,50402.76
2023-03-29T03:46:04.998Z,50420.36
2023-03-29T03:48:33.461Z,50405.56
2023-03-29T03:51:17.830Z,50409.96
2023-03-29T03:53:46.311Z,50401.96
2023-03-29T03:56:14.792Z,50411.16
2023-03-29T03:59:02.712Z,50405.16
2023-03-29T04:01:35.733Z,50397.16
2023-03-29T04:04:09.446Z,50417.96
2023-03-29T04:06:42.424Z,50398.76
2023-03-29T04:09:33.680Z,50398.36
2023-03-29T04:12:21.326Z,50398.36
2023-03-29T04:14:50.027Z,50407.16
2023-03-29T04:17:22.851Z,50403.16
2023-03-29T04:20:07.163Z,50405.16
2023-03-29T04:22:35.534Z,50405.96
2023-03-29T04:25:06.517Z,50396.76
2023-03-29T04:27:50.645Z,50392.36
2023-03-29T04:30:42.285Z,50405.96
2023-03-29T04:33:17.575Z,50389.57
2023-03-29T04:35:49.664Z,50399.56
2023-03-29T04:38:24.489Z,50385.57
2023-03-29T04:40:56.147Z,50381.56
2023-03-29T04:43:46.862Z,50385.16
2023-03-29T04:46:33.415Z,50399.96
2023-03-29T04:49:08.782Z,50391.56
2023-03-29T04:51:44.190Z,50387.96
2023-03-29T04:54:12.624Z,50395.96
2023-03-29T04:57:00.269Z,50398.76
2023-03-29T04:59:51.536Z,50398.36
2023-03-29T05:02:38.904Z,50387.16
2023-03-29T05:05:07.698Z,50397.96
2023-03-29T05:07:37.541Z,50393.16
2023-03-29T05:10:07.004Z,50403.16
2023-03-29T05:12:35.437Z,50369.17
2023-03-29T05:15:05.648Z,50379.56
2023-03-29T05:17:34.888Z,50389.16
2023-03-29T05:20:13.081Z,50393.96
2023-03-29T05:22:42.360Z,50377.96
2023-03-29T05:25:13.559Z,50379.57
2023-03-29T05:27:43.581Z,50363.97
2023-03-29T05:30:15.466Z,50384.36
2023-03-29T05:33:10.654Z,50397.56
2023-03-29T05:35:40.192Z,50370.37
2023-03-29T05:38:10.315Z,50363.57
2023-03-29T05:40:38.759Z,50365.57
2023-03-29T05:43:20.386Z,50389.96
2023-03-29T05:45:48.795Z,50363.57
2023-03-29T05:48:17.392Z,50375.57
2023-03-29T05:50:50.182Z,50376.37
2023-03-29T05:53:19.270Z,50391.56
2023-03-29T05:55:51.492Z,50368.37
2023-03-29T05:58:21.865Z,50381.57
2023-03-29T06:00:50.610Z,50368.77
2023-03-29T06:03:30.798Z,50361.98
2023-03-29T06:06:05.061Z,50374.77
2023-03-29T06:08:35.336Z,50364.37
2023-03-29T06:11:16.839Z,50346.38
2023-03-29T06:14:04.096Z,50359.18
2023-03-29T06:16:33.434Z,50356.77
2023-03-29T06:19:02.724Z,50361.17
2023-03-29T06:21:31.940Z,50359.17
2023-03-29T06:24:00.654Z,50367.57
2023-03-29T06:26:31.706Z,50357.97
2023-03-29T06:29:00.987Z,50372.77
2023-03-29T06:31:30.331Z,50354.77
2023-03-29T06:33:59.524Z,50367.17
2023-03-29T06:36:46.065Z,50333.98
2023-03-29T06:39:15.868Z,50356.77
2023-03-29T06:42:20.200Z,50343.98
2023-03-29T06:45:17.068Z,50338.38
2023-03-29T06:47:49.347Z,50338.38
2023-03-29T06:50:18.344Z,50340.38
2023-03-29T06:52:59.547Z,50336.77
2023-03-29T06:55:29.308Z,50337.18
2023-03-29T06:57:59.112Z,50341.18
2023-03-29T07:00:30.087Z,50353.98
2023-03-29T07:03:08.358Z,50337.18
2023-03-29T07:05:42.259Z,50332.38
2023-03-29T07:08:16.643Z,50336.38
2023-03-29T07:11:15.452Z,50344.78
2023-03-29T07:13:49.321Z,50324.38
2023-03-29T07:16:20.438Z,50331.58
2023-03-29T07:19:12.113Z,50321.18
2023-03-29T07:21:54.875Z,50322.78
2023-03-29T07:24:27.652Z,50304.39
2023-03-29T07:27:03.743Z,50323.58
2023-03-29T07:29:34.445Z,50324.79
2023-03-29T07:32:04.814Z,50327.98
2023-03-29T07:34:39.207Z,50320.78
2023-03-29T07:37:09.607Z,50329.58
2023-03-29T07:39:40.645Z,50330.78
2023-03-29T07:42:29.348Z,50324.78
2023-03-29T07:44:58.851Z,50319.18
2023-03-29T07:47:31.592Z,50305.59
2023-03-29T07:50:02.400Z,50313.98
2023-03-29T07:52:31.888Z,50301.99
2023-03-29T07:55:01.066Z,50317.18
2023-03-29T07:57:44.598Z,50308.39
2023-03-29T08:00:17.678Z,50301.99
2023-03-29T08:02:52.727Z,50313.18
2023-03-29T08:05:37.761Z,50309.59
2023-03-29T08:08:14.334Z,50286.79
2023-03-29T08:10:53.942Z,50312.78
2023-03-29T08:13:42.284Z,50305.19
2023-03-29T08:16:29.949Z,50297.59
2023-03-29T08:19:10.704Z,50323.18
2023-03-29T08:22:14.763Z,50321.59
2023-03-29T08:25:04.639Z,50314.38
2023-03-29T08:27:37.808Z,50335.58
2023-03-29T08:30:09.943Z,50323.98
2023-03-29T08:32:39.980Z,50306.79
2023-03-29T08:35:09.831Z,50315.98
2023-03-29T08:38:07.168Z,50316.39
2023-03-29T08:40:37.027Z,50314.79
2023-03-29T08:43:43.176Z,50307.19
2023-03-29T08:46:44.448Z,50310.79
2023-03-29T08:49:23.994Z,50315.59
2023-03-29T08:52:01.400Z,50311.59
2023-03-29T08:54:40.313Z,50322.79
2023-03-29T08:57:43.904Z,50307.99
2023-03-29T09:00:39.083Z,50308.39
2023-03-29T09:03:19.787Z,50317.58
2023-03-29T09:05:57.756Z,50294.39
2023-03-29T09:08:29.696Z,50305.19
2023-03-29T09:11:24.795Z,50291.19
2023-03-29T09:14:09.149Z,50300.39
2023-03-29T09:17:00.005Z,50297.19
2023-03-29T09:19:31.450Z,50305.99
2023-03-29T09:22:08.599Z,50299.59
2023-03-29T09:24:47.378Z,50298.39
2023-03-29T09:27:28.013Z,50283.59
2023-03-29T09:30:26.373Z,50309.18
2023-03-29T09:33:07.917Z,50296.79
2023-03-29T09:36:07.292Z,50312.79
2023-03-29T09:38:40.495Z,50300.39
2023-03-29T09:41:28.174Z,50305.99
2023-03-29T09:44:00.772Z,50307.99
2023-03-29T09:46:40.333Z,50302.39
2023-03-29T09:49:34.874Z,50315.59
2023-03-29T09:52:10.194Z,50298.79
2023-03-29T09:54:39.185Z,50314.79
2023-03-29T09:57:27.653Z,50301.59
2023-03-29T09:59:58.589Z,50315.98
2023-03-29T10:02:30.998Z,50321.58
2023-03-29T10:05:04.715Z,50314.39
2023-03-29T10:07:56.101Z,50318.38
2023-03-29T10:10:36.003Z,50317.59
2023-03-29T10:13:07.415Z,50329.18
2023-03-29T10:15:35.665Z,50322.38
2023-03-29T10:18:13.127Z,50332.78
2023-03-29T10:20:41.579Z,50335.58
2023-03-29T10:23:19.302Z,50346.38
2023-03-29T10:25:47.763Z,50340.38
2023-03-29T10:28:19.032Z,50362.37
2023-03-29T10:30:54.300Z,50365.96
2023-03-29T10:33:24.749Z,50355.98
2023-03-29T10:35:57.786Z,50353.18
2023-03-29T10:38:29.595Z,50365.98
2023-03-29T10:41:12.256Z,50350.77
2023-03-29T10:43:46.871Z,50363.97
2023-03-29T10:46:29.537Z,50346.38
2023-03-29T10:49:05.448Z,50344.38
2023-03-29T10:51:45.630Z,50338.77
2023-03-29T10:54:20.177Z,50350.77
2023-03-29T10:57:05.844Z,50342.38
2023-03-29T10:59:38.979Z,50337.57
2023-03-29T11:02:13.684Z,50326.38
2023-03-29T11:05:17.470Z,50327.58
2023-03-29T11:08:05.492Z,50310.79
2023-03-29T11:10:57.987Z,50322.38
2023-03-29T11:13:39.207Z,50320.38
2023-03-29T11:16:48.878Z,50326.38
2023-03-29T11:19:42.485Z,50308.79
2023-03-29T11:22:22.033Z,50310.38
2023-03-29T11:25:19.089Z,50305.59
2023-03-29T11:28:05.215Z,50317.59
2023-03-29T11:30:52.065Z,50307.99
2023-03-29T11:34:02.539Z,50309.59
2023-03-29T11:36:45.967Z,50290.79
2023-03-29T11:39:37.396Z,50306.79
2023-03-29T11:42:20.552Z,50319.98
2023-03-29T11:44:56.734Z,50298.39
2023-03-29T11:47:28.138Z,50304.39
2023-03-29T11:50:01.132Z,50296.39
2023-03-29T11:52:34.075Z,50290.79
2023-03-29T11:55:28.708Z,50299.99
2023-03-29T11:58:20.262Z,50299.59
2023-03-29T12:00:55.957Z,50301.59
2023-03-29T12:03:39.195Z,50300.79
2023-03-29T12:06:16.771Z,50295.19
2023-03-29T12:09:05.589Z,50282.39
2023-03-29T12:11:48.263Z,50301.19
2023-03-29T12:14:35.747Z,50287.99
2023-03-29T12:17:09.698Z,50303.59
2023-03-29T12:19:58.951Z,50292.79
2023-03-29T12:22:29.065Z,50294.79
2023-03-29T12:25:03.487Z,50297.19
2023-03-29T12:27:44.948Z,50276.80
2023-03-29T12:30:19.664Z,50290.79
2023-03-29T12:33:01.681Z,50282.00
2023-03-29T12:35:56.657Z,50286.79
2023-03-29T12:38:54.417Z,50289.19
2023-03-29T12:41:45.255Z,50299.59
2023-03-29T12:44:50.670Z,50283.59
2023-03-29T12:47:34.264Z,50291.20
2023-03-29T12:50:06.454Z,50290.39
2023-03-29T12:52:38.195Z,50307.19
2023-03-29T12:55:44.621Z,50281.20
2023-03-29T12:58:50.476Z,50293.19
2023-03-29T13:01:31.304Z,50290.79
2023-03-29T13:03:59.840Z,50302.79
2023-03-29T13:06:33.253Z,50329.58
2023-03-29T13:09:23.836Z,50327.58
2023-03-29T13:11:54.278Z,50321.18
2023-03-29T13:14:30.277Z,50314.39
2023-03-29T13:17:18.319Z,50317.98
2023-03-29T13:20:11.505Z,50301.99
2023-03-29T13:23:02.018Z,50305.99
2023-03-29T13:25:45.751Z,50331.18
2023-03-29T13:28:28.137Z,50322.78
2023-03-29T13:31:15.621Z,50328.38
2023-03-29T13:34:07.246Z,50343.57
2023-03-29T13:36:44.936Z,50343.57
2023-03-29T13:39:22.280Z,50323.98
2023-03-29T13:41:54.552Z,50323.59
2023-03-29T13:44:23.033Z,50329.18
2023-03-29T13:47:04.733Z,50352.38
2023-03-29T13:49:35.841Z,50335.18
2023-03-29T13:52:24.702Z,50350.38
2023-03-29T13:54:58.174Z,50328.78
2023-03-29T13:57:55.441Z,50343.57
2023-03-29T14:00:32.903Z,50336.38
2023-03-29T14:03:07.370Z,50345.57
2023-03-29T14:05:40.061Z,50338.38
2023-03-29T14:08:27.737Z,50327.18
2023-03-29T14:10:57.159Z,50329.98
2023-03-29T14:13:30.455Z,50331.98
2023-03-29T14:16:07.591Z,50334.38
2023-03-29T14:18:45.274Z,50337.98
2023-03-29T14:21:14.987Z,50338.78
2023-03-29T14:23:46.356Z,50320.79
2023-03-29T14:26:20.725Z,50319.99
2023-03-29T14:28:56.981Z,50325.58
2023-03-29T14:31:38.061Z,50323.98
2023-03-29T14:34:16.012Z,50330.78
2023-03-29T14:36:49.190Z,50325.18
2023-03-29T14:39:22.022Z,50315.99
2023-03-29T14:41:54.749Z,50327.18
2023-03-29T14:44:35.017Z,50329.18
2023-03-29T14:47:04.277Z,50325.18
2023-03-29T14:49:33.043Z,50308.79
2023-03-29T14:52:01.954Z,50321.98
2023-03-29T14:54:33.573Z,50315.59
2023-03-29T14:57:07.618Z,50313.59
2023-03-29T14:59:38.771Z,50323.18
2023-03-29T15:02:33.247Z,50306.39
2023-03-29T15:05:04.948Z,50323.18
2023-03-29T15:07:37.086Z,50326.38
2023-03-29T15:10:06.739Z,50319.59
2023-03-29T15:12:38.290Z,50308.79
2023-03-29T15:15:12.249Z,50330.38
2023-03-29T15:17:50.182Z,50301.19
2023-03-29T15:20:27.715Z,50331.98
2023-03-29T15:23:00.229Z,50331.18
2023-03-29T15:25:46.341Z,50323.58
2023-03-29T15:29:08.354Z,50319.98
2023-03-29T15:31:39.826Z,50312.39
2023-03-29T15:34:27.548Z,50318.38
2023-03-29T15:36:59.476Z,50311.99
2023-03-29T15:39:29.684Z,50304.39
2023-03-29T15:41:58.513Z,50317.98
2023-03-29T15:44:32.468Z,50313.99
2023-03-29T15:47:01.022Z,50310.79
2023-03-29T15:49:29.420Z,50319.98
2023-03-29T15:51:58.220Z,50315.59
2023-03-29T15:54:28.184Z,50316.39
2023-03-29T15:57:18.035Z,50318.79
2023-03-29T15:59:46.530Z,50334.38
2023-03-29T16:02:17.706Z,50341.57
2023-03-29T16:04:46.234Z,50333.18
2023-03-29T16:07:17.298Z,50338.38
2023-03-29T16:09:46.372Z,50337.58
2023-03-29T16:12:16.493Z,50329.18
2023-03-29T16:14:44.934Z,50341.98
2023-03-29T16:17:14.350Z,50333.18
2023-03-29T16:19:42.788Z,50341.18
2023-03-29T16:22:11.068Z,50352.37
2023-03-29T16:24:39.706Z,50335.58
2023-03-29T16:27:08.033Z,50334.38
2023-03-29T16:29:36.451Z,50353.57
2023-03-29T16:32:06.707Z,50341.18
2023-03-29T16:34:38.355Z,50348.77
2023-03-29T16:37:07.820Z,50360.77
2023-03-29T16:39:36.130Z,50358.38
2023-03-29T16:42:04.498Z,50348.38
2023-03-29T16:44:33.361Z,50359.57
2023-03-29T16:47:02.103Z,50354.38
2023-03-29T16:49:39.256Z,50356.77
2023-03-29T16:52:09.058Z,50349.98
2023-03-29T16:54:37.481Z,50355.57
2023-03-29T16:57:07.402Z,50352.77
2023-03-29T16:59:38.902Z,50347.98
2023-03-29T17:02:09.704Z,50357.57
2023-03-29T17:04:41.187Z,50362.37
2023-03-29T17:07:12.630Z,50352.38
2023-03-29T17:09:41.909Z,50355.57
2023-03-29T17:12:10.607Z,50345.98
2023-03-29T17:14:39.316Z,50355.18
2023-03-29T17:17:12.083Z,50355.57
2023-03-29T17:19:40.566Z,50349.57
2023-03-29T17:22:08.945Z,50358.37
2023-03-29T17:24:37.273Z,50373.17
2023-03-29T17:27:05.521Z,50352.38
2023-03-29T17:29:34.069Z,50351.57
2023-03-29T17:32:04.976Z,50337.18
2023-03-29T17:34:34.822Z,50368.77
2023-03-29T17:37:03.840Z,50360.77
2023-03-29T17:39:37.733Z,50365.57
2023-03-29T17:42:06.797Z,50353.98
2023-03-29T17:44:41.457Z,50359.57
2023-03-29T17:47:09.829Z,50375.57
2023-03-29T17:49:38.525Z,50353.18
2023-03-29T17:52:07.015Z,50365.17
2023-03-29T17:54:35.880Z,50370.77
2023-03-29T17:57:07.536Z,50358.77
2023-03-29T17:59:38.330Z,50363.17
2023-03-29T18:02:07.300Z,50372.37
2023-03-29T18:04:35.729Z,50362.37
2023-03-29T18:07:05.344Z,50391.16
2023-03-29T18:09:34.646Z,50368.37
2023-03-29T18:12:03.292Z,50384.36
2023-03-29T18:14:31.692Z,50367.57
2023-03-29T18:17:03.576Z,50373.97
2023-03-29T18:19:32.119Z,50349.57
2023-03-29T18:22:01.322Z,50347.57
2023-03-29T18:24:30.844Z,50356.77
2023-03-29T18:27:00.048Z,50351.57
2023-03-29T18:29:29.605Z,50373.97
2023-03-29T18:32:02.902Z,50345.98
2023-03-29T18:34:31.861Z,50352.38
2023-03-29T18:37:00.736Z,50361.97
2023-03-29T18:39:29.099Z,50365.97
2023-03-29T18:41:57.770Z,50368.37
2023-03-29T18:44:27.481Z,50369.96
2023-03-29T18:46:56.501Z,50368.77
2023-03-29T18:49:25.997Z,50373.57
2023-03-29T18:51:55.973Z,50371.17
2023-03-29T18:54:24.475Z,50366.37
2023-03-29T18:56:52.968Z,50379.57
2023-03-29T18:59:21.494Z,50384.37
2023-03-29T19:01:50.645Z,50381.57
2023-03-29T19:04:20.129Z,50380.37
2023-03-29T19:06:49.460Z,50379.56
2023-03-29T19:09:18.107Z,50389.96
2023-03-29T19:11:50.039Z,50385.96
2023-03-29T19:14:25.766Z,50374.77
2023-03-29T19:16:56.295Z,50377.96
2023-03-29T19:19:26.539Z,50382.77
2023-03-29T19:21:57.701Z,50395.56
2023-03-29T19:24:28.432Z,50392.36
2023-03-29T19:26:57.639Z,50380.77
2023-03-29T19:29:26.440Z,50378.77
2023-03-29T19:31:56.598Z,50392.76
2023-03-29T19:34:24.919Z,50385.16
2023-03-29T19:36:56.271Z,50365.57
2023-03-29T19:39:26.846Z,50392.76
2023-03-29T19:41:58.242Z,50395.16
2023-03-29T19:44:28.299Z,50381.97
2023-03-29T19:46:56.936Z,50389.96
2023-03-29T19:49:25.455Z,50402.36
2023-03-29T19:51:55.795Z,50390.76
2023-03-29T19:54:26.436Z,50395.96
2023-03-29T19:56:57.524Z,50387.96
2023-03-29T19:59:27.253Z,50397.56
2023-03-29T20:01:57.050Z,50391.96
2023-03-29T20:04:25.976Z,50397.56
2023-03-29T20:06:54.424Z,50399.96
2023-03-29T20:09:22.590Z,50410.76
2023-03-29T20:11:51.008Z,50389.96
2023-03-29T20:14:19.311Z,50402.36
2023-03-29T20:16:52.515Z,50395.56
2023-03-29T20:19:25.464Z,50396.76
2023-03-29T20:21:58.210Z,50399.16
2023-03-29T20:24:26.595Z,50384.37
2023-03-29T20:26:55.326Z,50387.16
2023-03-29T20:29:23.502Z,50410.75
2023-03-29T20:31:51.923Z,50399.16
2023-03-29T20:34:20.482Z,50400.76
2023-03-29T20:36:49.195Z,50396.76
2023-03-29T20:39:24.382Z,50407.96
2023-03-29T20:41:54.903Z,50397.96
2023-03-29T20:44:26.376Z,50404.76
2023-03-29T20:47:08.705Z,50411.96
2023-03-29T20:49:37.776Z,50406.36
2023-03-29T20:52:10.894Z,50400.36
2023-03-29T20:54:39.117Z,50411.96
2023-03-29T20:57:08.209Z,50403.96
2023-03-29T20:59:38.332Z,50406.76
2023-03-29T21:02:06.824Z,50402.76
2023-03-29T21:04:37.012Z,50405.55
2023-03-29T21:07:08.390Z,50407.55
2023-03-29T21:09:36.864Z,50400.76
2023-03-29T21:12:05.162Z,50401.16
2023-03-29T21:14:33.427Z,50414.76
2023-03-29T21:17:01.749Z,50416.76
2023-03-29T21:19:30.002Z,50415.15
2023-03-29T21:21:58.253Z,50415.16
2023-03-29T21:24:26.525Z,50410.36
2023-03-29T21:26:55.208Z,50397.56
2023-03-29T21:29:23.516Z,50401.96
2023-03-29T21:31:51.785Z,50406.76
2023-03-29T21:34:20.037Z,50413.56
2023-03-29T21:36:48.350Z,50414.76
2023-03-29T21:39:18.109Z,50407.55
2023-03-29T21:41:46.496Z,50411.55
2023-03-29T21:44:15.297Z,50393.56
2023-03-29T21:46:43.578Z,50417.55
2023-03-29T21:49:12.168Z,50409.55
2023-03-29T21:51:40.500Z,50407.96
2023-03-29T21:54:11.158Z,50413.95
2023-03-29T21:56:39.569Z,50406.36
2023-03-29T21:59:07.865Z,50434.35
2023-03-29T22:01:36.419Z,50410.76
2023-03-29T22:04:04.822Z,50421.55
2023-03-29T22:06:33.091Z,50423.55
2023-03-29T22:09:03.349Z,50411.16
2023-03-29T22:11:31.770Z,50415.55
2023-03-29T22:13:59.996Z,50413.56
2023-03-29T22:16:28.496Z,50427.95
2023-03-29T22:18:58.072Z,50407.96
2023-03-29T22:21:28.576Z,50408.76
2023-03-29T22:23:58.731Z,50409.96
2023-03-29T22:26:30.621Z,50421.55
2023-03-29T22:29:00.903Z,50407.55
2023-03-29T22:31:31.711Z,50399.16
2023-03-29T22:34:03.055Z,50411.16
2023-03-29T22:36:31.972Z,50409.55
2023-03-29T22:39:00.208Z,50409.96
2023-03-29T22:41:29.101Z,50409.95
2023-03-29T22:43:59.244Z,50419.95
2023-03-29T22:46:28.999Z,50409.96
2023-03-29T22:48:57.518Z,50419.95
2023-03-29T22:51:26.417Z,50395.56
2023-03-29T22:53:54.702Z,50394.36
2023-03-29T22:56:23.885Z,50404.36
2023-03-29T22:58:52.139Z,50397.16
2023-03-29T23:01:20.471Z,50398.36
2023-03-29T23:03:48.769Z,50414.76
2023-03-29T23:06:17.037Z,50409.96
2023-03-29T23:08:45.518Z,50423.15
2023-03-29T23:11:13.794Z,50407.16
2023-03-29T23:13:42.108Z,50414.76
2023-03-29T23:16:10.511Z,50417.96
2023-03-29T23:18:39.097Z,50414.35
2023-03-29T23:21:09.209Z,50410.36
2023-03-29T23:23:37.691Z,50417.55
2023-03-29T23:26:12.007Z,50409.55
2023-03-29T23:28:41.255Z,50408.36
2023-03-29T23:31:11.854Z,50413.15
2023-03-29T23:33:42.864Z,50425.15
2023-03-29T23:36:14.670Z,50400.36
2023-03-29T23:38:44.799Z,50407.96
2023-03-29T23:41:13.782Z,50417.95
2023-03-29T23:43:44.228Z,50417.95
2023-03-29T23:46:16.090Z,50426.75
2023-03-29T23:48:46.210Z,50408.36
2023-03-29T23:51:14.699Z,50415.95
2023-03-29T23:53:42.884Z,50409.16
2023-03-29T23:56:13.438Z,50417.55
2023-03-29T23:58:42.034Z,50417.96
